KCBE/CBE METAR and TAF weather

Enter ICAO airport designator
Station Type Date Time Source
KCBE METAR 2021/10/20 06:55 UTC NOAA

KCBE 200655Z AUTO 00000KT 10SM CLR 08/07 A3019 RMK AO2 T00780069


Station Type Date Time Source
KCBE Decoded METAR 2021/10/20 06:55 UTC NOAA

Cumberland, Greater Cumberland Regional Airport, MD, United States (KCBE) 39-36-55N 078-45-39W
Oct 20, 2021 - 02:55 AM EDT / 2021.10.20 0655 UTC
Wind: Calm:0
Visibility: 10 mile(s):0
Sky conditions: clear
Temperature: 46.0 F (7.8 C)
Dew Point: 44.4 F (6.9 C)
Relative Humidity: 94%
Pressure (altimeter): 30.19 in. Hg (1022 hPa)
ob: KCBE 200655Z AUTO 00000KT 10SM CLR 08/07 A3019 RMK AO2 T00780069
cycle: 7

Station Type Date Time Source
KCBE TAF UTC NOAA

Error!

Example: see airport list